sensor_id;sensor_type;location;lat;lon;timestamp;P1;durP1;ratioP1;P2;durP2;ratioP2
82787;SDS011;72529;51.786;4.662;2024-01-07T00:01:17;18.75;;;18.61;;
82787;SDS011;72529;51.786;4.662;2024-01-07T00:03:42;18.88;;;18.73;;
82787;SDS011;72529;51.786;4.662;2024-01-07T00:06:09;19.13;;;18.94;;
82787;SDS011;72529;51.786;4.662;2024-01-07T00:08:35;18.74;;;18.68;;
82787;SDS011;72529;51.786;4.662;2024-01-07T00:11:01;18.85;;;18.62;;
82787;SDS011;72529;51.786;4.662;2024-01-07T00:13:26;19.76;;;19.68;;
82787;SDS011;72529;51.786;4.662;2024-01-07T00:15:52;20.16;;;20.06;;
82787;SDS011;72529;51.786;4.662;2024-01-07T00:18:19;19.70;;;19.63;;
82787;SDS011;72529;51.786;4.662;2024-01-07T00:20:44;20.40;;;20.27;;
82787;SDS011;72529;51.786;4.662;2024-01-07T00:23:10;19.57;;;19.47;;
82787;SDS011;72529;51.786;4.662;2024-01-07T00:25:35;21.52;;;21.35;;
82787;SDS011;72529;51.786;4.662;2024-01-07T00:28:01;20.51;;;20.29;;
82787;SDS011;72529;51.786;4.662;2024-01-07T00:30:26;19.13;;;19.00;;
82787;SDS011;72529;51.786;4.662;2024-01-07T00:32:52;17.74;;;17.74;;
82787;SDS011;72529;51.786;4.662;2024-01-07T00:35:17;16.51;;;16.24;;
82787;SDS011;72529;51.786;4.662;2024-01-07T00:37:43;16.54;;;16.46;;
82787;SDS011;72529;51.786;4.662;2024-01-07T00:40:09;18.54;;;18.53;;
82787;SDS011;72529;51.786;4.662;2024-01-07T00:42:35;16.39;;;16.38;;
82787;SDS011;72529;51.786;4.662;2024-01-07T00:45:00;16.07;;;16.01;;
82787;SDS011;72529;51.786;4.662;2024-01-07T00:47:26;16.18;;;16.07;;
82787;SDS011;72529;51.786;4.662;2024-01-07T00:49:51;16.04;;;15.98;;
82787;SDS011;72529;51.786;4.662;2024-01-07T00:52:16;16.13;;;16.03;;
82787;SDS011;72529;51.786;4.662;2024-01-07T00:54:43;16.77;;;16.77;;
82787;SDS011;72529;51.786;4.662;2024-01-07T00:57:10;16.54;;;16.52;;
82787;SDS011;72529;51.786;4.662;2024-01-07T00:59:37;16.83;;;16.80;;
82787;SDS011;72529;51.786;4.662;2024-01-07T01:02:03;16.03;;;16.00;;
82787;SDS011;72529;51.786;4.662;2024-01-07T01:04:29;16.66;;;16.66;;
82787;SDS011;72529;51.786;4.662;2024-01-07T01:06:54;16.68;;;16.67;;
82787;SDS011;72529;51.786;4.662;2024-01-07T01:09:19;16.36;;;16.35;;
82787;SDS011;72529;51.786;4.662;2024-01-07T01:11:45;16.77;;;16.74;;
82787;SDS011;72529;51.786;4.662;2024-01-07T01:14:10;18.17;;;17.77;;
82787;SDS011;72529;51.786;4.662;2024-01-07T01:16:36;17.64;;;17.48;;
82787;SDS011;72529;51.786;4.662;2024-01-07T01:19:01;18.22;;;18.04;;
82787;SDS011;72529;51.786;4.662;2024-01-07T01:21:27;18.35;;;18.26;;
82787;SDS011;72529;51.786;4.662;2024-01-07T01:23:52;18.75;;;18.53;;
82787;SDS011;72529;51.786;4.662;2024-01-07T01:26:17;17.65;;;17.60;;
82787;SDS011;72529;51.786;4.662;2024-01-07T01:28:43;18.80;;;18.60;;
82787;SDS011;72529;51.786;4.662;2024-01-07T01:31:12;17.94;;;17.84;;
82787;SDS011;72529;51.786;4.662;2024-01-07T01:33:38;19.07;;;18.94;;
82787;SDS011;72529;51.786;4.662;2024-01-07T01:36:04;18.63;;;18.58;;
82787;SDS011;72529;51.786;4.662;2024-01-07T01:38:31;19.52;;;19.12;;
82787;SDS011;72529;51.786;4.662;2024-01-07T01:40:56;19.48;;;19.23;;
82787;SDS011;72529;51.786;4.662;2024-01-07T01:43:25;19.98;;;19.73;;
82787;SDS011;72529;51.786;4.662;2024-01-07T01:45:52;20.04;;;19.77;;
82787;SDS011;72529;51.786;4.662;2024-01-07T01:48:18;20.19;;;20.11;;
82787;SDS011;72529;51.786;4.662;2024-01-07T01:50:45;20.43;;;20.23;;
82787;SDS011;72529;51.786;4.662;2024-01-07T01:53:12;20.06;;;19.81;;
82787;SDS011;72529;51.786;4.662;2024-01-07T01:55:38;20.40;;;20.32;;
82787;SDS011;72529;51.786;4.662;2024-01-07T01:58:04;20.78;;;20.78;;
82787;SDS011;72529;51.786;4.662;2024-01-07T02:00:32;20.69;;;20.62;;
82787;SDS011;72529;51.786;4.662;2024-01-07T02:02:57;21.01;;;20.86;;
82787;SDS011;72529;51.786;4.662;2024-01-07T02:05:25;20.89;;;20.75;;
82787;SDS011;72529;51.786;4.662;2024-01-07T02:07:51;21.32;;;20.97;;
82787;SDS011;72529;51.786;4.662;2024-01-07T02:10:18;20.93;;;20.86;;
82787;SDS011;72529;51.786;4.662;2024-01-07T02:12:43;21.12;;;20.99;;
82787;SDS011;72529;51.786;4.662;2024-01-07T02:15:09;21.05;;;21.00;;
82787;SDS011;72529;51.786;4.662;2024-01-07T02:17:34;21.17;;;20.84;;
82787;SDS011;72529;51.786;4.662;2024-01-07T02:20:00;21.30;;;21.18;;
82787;SDS011;72529;51.786;4.662;2024-01-07T02:22:25;20.37;;;20.35;;
82787;SDS011;72529;51.786;4.662;2024-01-07T02:24:51;20.77;;;20.74;;
82787;SDS011;72529;51.786;4.662;2024-01-07T02:27:16;21.34;;;21.12;;
82787;SDS011;72529;51.786;4.662;2024-01-07T02:29:42;21.19;;;20.86;;
82787;SDS011;72529;51.786;4.662;2024-01-07T02:32:07;20.31;;;20.23;;
82787;SDS011;72529;51.786;4.662;2024-01-07T02:34:32;20.04;;;20.03;;
82787;SDS011;72529;51.786;4.662;2024-01-07T02:36:58;20.79;;;20.68;;
82787;SDS011;72529;51.786;4.662;2024-01-07T02:39:23;20.09;;;19.96;;
82787;SDS011;72529;51.786;4.662;2024-01-07T02:41:49;21.24;;;20.96;;
82787;SDS011;72529;51.786;4.662;2024-01-07T02:44:15;21.70;;;21.37;;
82787;SDS011;72529;51.786;4.662;2024-01-07T02:46:40;21.55;;;21.20;;
82787;SDS011;72529;51.786;4.662;2024-01-07T02:49:06;21.04;;;20.89;;
82787;SDS011;72529;51.786;4.662;2024-01-07T02:51:31;21.34;;;21.19;;
82787;SDS011;72529;51.786;4.662;2024-01-07T02:53:56;20.85;;;20.42;;
82787;SDS011;72529;51.786;4.662;2024-01-07T02:56:22;20.71;;;20.51;;
82787;SDS011;72529;51.786;4.662;2024-01-07T02:58:47;20.59;;;20.46;;
82787;SDS011;72529;51.786;4.662;2024-01-07T03:01:13;20.38;;;20.27;;
82787;SDS011;72529;51.786;4.662;2024-01-07T03:03:38;20.18;;;19.90;;
82787;SDS011;72529;51.786;4.662;2024-01-07T03:06:04;21.14;;;20.82;;
82787;SDS011;72529;51.786;4.662;2024-01-07T03:08:29;21.20;;;20.77;;
82787;SDS011;72529;51.786;4.662;2024-01-07T03:10:55;20.44;;;20.36;;
82787;SDS011;72529;51.786;4.662;2024-01-07T03:13:20;20.39;;;20.22;;
82787;SDS011;72529;51.786;4.662;2024-01-07T03:15:46;20.27;;;19.93;;
82787;SDS011;72529;51.786;4.662;2024-01-07T03:18:11;20.90;;;20.45;;
82787;SDS011;72529;51.786;4.662;2024-01-07T03:20:37;20.78;;;20.51;;
82787;SDS011;72529;51.786;4.662;2024-01-07T03:23:02;20.22;;;20.05;;
82787;SDS011;72529;51.786;4.662;2024-01-07T03:25:27;20.23;;;20.04;;
82787;SDS011;72529;51.786;4.662;2024-01-07T03:27:53;20.16;;;19.91;;
82787;SDS011;72529;51.786;4.662;2024-01-07T03:30:18;20.34;;;20.08;;
82787;SDS011;72529;51.786;4.662;2024-01-07T03:32:44;20.71;;;20.46;;
82787;SDS011;72529;51.786;4.662;2024-01-07T03:35:09;21.35;;;20.95;;
82787;SDS011;72529;51.786;4.662;2024-01-07T03:37:35;21.22;;;20.74;;
82787;SDS011;72529;51.786;4.662;2024-01-07T03:40:00;21.07;;;20.68;;
82787;SDS011;72529;51.786;4.662;2024-01-07T03:42:26;21.50;;;21.14;;
82787;SDS011;72529;51.786;4.662;2024-01-07T03:44:51;21.81;;;21.58;;
82787;SDS011;72529;51.786;4.662;2024-01-07T03:47:17;22.85;;;22.48;;
82787;SDS011;72529;51.786;4.662;2024-01-07T03:49:42;22.37;;;21.86;;
82787;SDS011;72529;51.786;4.662;2024-01-07T03:52:08;23.00;;;22.39;;
82787;SDS011;72529;51.786;4.662;2024-01-07T03:54:33;23.82;;;23.31;;
82787;SDS011;72529;51.786;4.662;2024-01-07T03:56:59;23.84;;;23.42;;
82787;SDS011;72529;51.786;4.662;2024-01-07T03:59:25;24.36;;;23.66;;
82787;SDS011;72529;51.786;4.662;2024-01-07T04:01:55;24.29;;;23.79;;
82787;SDS011;72529;51.786;4.662;2024-01-07T04:04:22;23.95;;;23.60;;
82787;SDS011;72529;51.786;4.662;2024-01-07T04:06:47;24.71;;;24.19;;
82787;SDS011;72529;51.786;4.662;2024-01-07T04:09:13;25.52;;;24.86;;
82787;SDS011;72529;51.786;4.662;2024-01-07T04:11:39;25.05;;;24.59;;
82787;SDS011;72529;51.786;4.662;2024-01-07T04:14:06;24.59;;;24.24;;
82787;SDS011;72529;51.786;4.662;2024-01-07T04:16:31;24.76;;;24.39;;
82787;SDS011;72529;51.786;4.662;2024-01-07T04:18:56;25.81;;;25.42;;
82787;SDS011;72529;51.786;4.662;2024-01-07T04:21:22;26.11;;;25.56;;
82787;SDS011;72529;51.786;4.662;2024-01-07T04:23:47;26.94;;;26.46;;
82787;SDS011;72529;51.786;4.662;2024-01-07T04:26:13;26.86;;;26.46;;
82787;SDS011;72529;51.786;4.662;2024-01-07T04:28:40;27.53;;;27.16;;
82787;SDS011;72529;51.786;4.662;2024-01-07T04:31:07;27.42;;;27.00;;
82787;SDS011;72529;51.786;4.662;2024-01-07T04:33:33;28.06;;;27.60;;
82787;SDS011;72529;51.786;4.662;2024-01-07T04:35:58;29.08;;;28.50;;
82787;SDS011;72529;51.786;4.662;2024-01-07T04:38:25;29.26;;;29.05;;
82787;SDS011;72529;51.786;4.662;2024-01-07T04:40:54;30.81;;;30.21;;
82787;SDS011;72529;51.786;4.662;2024-01-07T04:43:19;30.67;;;29.98;;
82787;SDS011;72529;51.786;4.662;2024-01-07T04:45:45;30.31;;;29.82;;
82787;SDS011;72529;51.786;4.662;2024-01-07T04:48:10;30.48;;;29.91;;
82787;SDS011;72529;51.786;4.662;2024-01-07T04:50:36;29.53;;;29.00;;
82787;SDS011;72529;51.786;4.662;2024-01-07T04:53:01;29.68;;;29.35;;
82787;SDS011;72529;51.786;4.662;2024-01-07T04:55:27;30.24;;;29.72;;
82787;SDS011;72529;51.786;4.662;2024-01-07T04:57:54;29.47;;;29.02;;
82787;SDS011;72529;51.786;4.662;2024-01-07T05:00:20;29.38;;;28.91;;
82787;SDS011;72529;51.786;4.662;2024-01-07T05:02:45;29.31;;;28.79;;
82787;SDS011;72529;51.786;4.662;2024-01-07T05:05:11;29.31;;;28.77;;
82787;SDS011;72529;51.786;4.662;2024-01-07T05:07:36;28.60;;;28.18;;
82787;SDS011;72529;51.786;4.662;2024-01-07T05:10:02;28.58;;;28.07;;
82787;SDS011;72529;51.786;4.662;2024-01-07T05:12:28;29.23;;;28.74;;
82787;SDS011;72529;51.786;4.662;2024-01-07T05:14:54;28.48;;;27.98;;
82787;SDS011;72529;51.786;4.662;2024-01-07T05:17:19;28.87;;;28.41;;
82787;SDS011;72529;51.786;4.662;2024-01-07T05:19:45;29.48;;;28.79;;
82787;SDS011;72529;51.786;4.662;2024-01-07T05:22:10;28.84;;;28.37;;
82787;SDS011;72529;51.786;4.662;2024-01-07T05:24:39;29.63;;;28.91;;
82787;SDS011;72529;51.786;4.662;2024-01-07T05:27:04;29.32;;;28.63;;
82787;SDS011;72529;51.786;4.662;2024-01-07T05:29:31;28.24;;;27.76;;
82787;SDS011;72529;51.786;4.662;2024-01-07T05:32:00;28.37;;;27.93;;
82787;SDS011;72529;51.786;4.662;2024-01-07T05:34:27;28.46;;;28.10;;
82787;SDS011;72529;51.786;4.662;2024-01-07T05:36:53;28.24;;;27.80;;
82787;SDS011;72529;51.786;4.662;2024-01-07T05:39:18;29.20;;;28.37;;
82787;SDS011;72529;51.786;4.662;2024-01-07T05:41:44;29.09;;;28.52;;
82787;SDS011;72529;51.786;4.662;2024-01-07T05:44:11;29.06;;;28.64;;
82787;SDS011;72529;51.786;4.662;2024-01-07T05:46:40;28.22;;;27.98;;
82787;SDS011;72529;51.786;4.662;2024-01-07T05:49:06;28.22;;;27.83;;
82787;SDS011;72529;51.786;4.662;2024-01-07T05:51:33;29.11;;;28.72;;
82787;SDS011;72529;51.786;4.662;2024-01-07T05:53:59;29.92;;;29.54;;
82787;SDS011;72529;51.786;4.662;2024-01-07T05:56:24;29.39;;;28.96;;
82787;SDS011;72529;51.786;4.662;2024-01-07T05:58:49;29.50;;;29.07;;
82787;SDS011;72529;51.786;4.662;2024-01-07T06:01:18;30.14;;;29.72;;
82787;SDS011;72529;51.786;4.662;2024-01-07T06:03:45;30.41;;;29.94;;
82787;SDS011;72529;51.786;4.662;2024-01-07T06:06:13;29.48;;;29.10;;
82787;SDS011;72529;51.786;4.662;2024-01-07T06:08:39;29.84;;;29.37;;
82787;SDS011;72529;51.786;4.662;2024-01-07T06:11:08;29.29;;;28.89;;
82787;SDS011;72529;51.786;4.662;2024-01-07T06:13:34;30.28;;;29.85;;
82787;SDS011;72529;51.786;4.662;2024-01-07T06:15:59;29.89;;;29.45;;
82787;SDS011;72529;51.786;4.662;2024-01-07T06:18:25;29.60;;;29.05;;
82787;SDS011;72529;51.786;4.662;2024-01-07T06:20:50;29.13;;;28.70;;
82787;SDS011;72529;51.786;4.662;2024-01-07T06:23:16;30.56;;;30.07;;
82787;SDS011;72529;51.786;4.662;2024-01-07T06:25:41;29.70;;;29.21;;
82787;SDS011;72529;51.786;4.662;2024-01-07T06:28:07;29.38;;;28.89;;
82787;SDS011;72529;51.786;4.662;2024-01-07T06:30:32;30.88;;;30.25;;
82787;SDS011;72529;51.786;4.662;2024-01-07T06:32:58;30.34;;;29.82;;
82787;SDS011;72529;51.786;4.662;2024-01-07T06:35:24;29.33;;;29.00;;
82787;SDS011;72529;51.786;4.662;2024-01-07T06:37:49;30.13;;;29.70;;
82787;SDS011;72529;51.786;4.662;2024-01-07T06:40:15;30.15;;;29.72;;
82787;SDS011;72529;51.786;4.662;2024-01-07T06:42:40;30.34;;;29.87;;
82787;SDS011;72529;51.786;4.662;2024-01-07T06:45:06;30.19;;;29.79;;
82787;SDS011;72529;51.786;4.662;2024-01-07T06:47:32;30.08;;;29.66;;
82787;SDS011;72529;51.786;4.662;2024-01-07T06:49:57;29.39;;;29.05;;
82787;SDS011;72529;51.786;4.662;2024-01-07T06:52:22;28.69;;;28.38;;
82787;SDS011;72529;51.786;4.662;2024-01-07T06:54:48;27.75;;;27.43;;
82787;SDS011;72529;51.786;4.662;2024-01-07T06:57:13;27.11;;;26.85;;
82787;SDS011;72529;51.786;4.662;2024-01-07T06:59:39;26.93;;;26.75;;
82787;SDS011;72529;51.786;4.662;2024-01-07T07:02:04;26.96;;;26.70;;
82787;SDS011;72529;51.786;4.662;2024-01-07T07:04:30;27.31;;;26.89;;
82787;SDS011;72529;51.786;4.662;2024-01-07T07:06:55;27.30;;;26.83;;
82787;SDS011;72529;51.786;4.662;2024-01-07T07:09:22;26.67;;;26.35;;
82787;SDS011;72529;51.786;4.662;2024-01-07T07:11:48;26.65;;;26.41;;
82787;SDS011;72529;51.786;4.662;2024-01-07T07:14:13;26.39;;;26.16;;
82787;SDS011;72529;51.786;4.662;2024-01-07T07:16:39;26.72;;;26.23;;
82787;SDS011;72529;51.786;4.662;2024-01-07T07:19:04;25.79;;;25.51;;
82787;SDS011;72529;51.786;4.662;2024-01-07T07:21:29;25.62;;;25.43;;
82787;SDS011;72529;51.786;4.662;2024-01-07T07:23:55;25.49;;;25.26;;
82787;SDS011;72529;51.786;4.662;2024-01-07T07:26:20;26.19;;;25.76;;
82787;SDS011;72529;51.786;4.662;2024-01-07T07:28:46;25.76;;;25.50;;
82787;SDS011;72529;51.786;4.662;2024-01-07T07:31:12;25.67;;;25.47;;
82787;SDS011;72529;51.786;4.662;2024-01-07T07:33:40;25.19;;;25.06;;
82787;SDS011;72529;51.786;4.662;2024-01-07T07:36:06;25.62;;;25.18;;
82787;SDS011;72529;51.786;4.662;2024-01-07T07:38:32;25.89;;;25.73;;
82787;SDS011;72529;51.786;4.662;2024-01-07T07:40:59;26.29;;;26.01;;
82787;SDS011;72529;51.786;4.662;2024-01-07T07:43:25;26.07;;;25.91;;
82787;SDS011;72529;51.786;4.662;2024-01-07T07:45:51;26.85;;;26.52;;
82787;SDS011;72529;51.786;4.662;2024-01-07T07:48:17;28.52;;;28.10;;
82787;SDS011;72529;51.786;4.662;2024-01-07T07:50:43;28.98;;;28.55;;
82787;SDS011;72529;51.786;4.662;2024-01-07T07:53:08;29.78;;;29.18;;
82787;SDS011;72529;51.786;4.662;2024-01-07T07:55:34;27.84;;;27.49;;
82787;SDS011;72529;51.786;4.662;2024-01-07T07:58:00;28.36;;;27.80;;
82787;SDS011;72529;51.786;4.662;2024-01-07T08:00:25;29.08;;;28.61;;
82787;SDS011;72529;51.786;4.662;2024-01-07T08:02:51;28.18;;;27.73;;
82787;SDS011;72529;51.786;4.662;2024-01-07T08:05:16;27.42;;;26.77;;
82787;SDS011;72529;51.786;4.662;2024-01-07T08:07:42;26.72;;;26.54;;
82787;SDS011;72529;51.786;4.662;2024-01-07T08:10:07;26.90;;;26.64;;
82787;SDS011;72529;51.786;4.662;2024-01-07T08:12:33;26.05;;;25.77;;
82787;SDS011;72529;51.786;4.662;2024-01-07T08:14:59;25.75;;;25.38;;
82787;SDS011;72529;51.786;4.662;2024-01-07T08:17:25;25.44;;;25.31;;
82787;SDS011;72529;51.786;4.662;2024-01-07T08:19:50;25.79;;;25.73;;
82787;SDS011;72529;51.786;4.662;2024-01-07T08:22:16;26.85;;;26.61;;
82787;SDS011;72529;51.786;4.662;2024-01-07T08:24:41;26.65;;;26.44;;
82787;SDS011;72529;51.786;4.662;2024-01-07T08:27:07;26.19;;;25.98;;
82787;SDS011;72529;51.786;4.662;2024-01-07T08:29:33;27.06;;;26.83;;
82787;SDS011;72529;51.786;4.662;2024-01-07T08:31:59;27.07;;;26.72;;
82787;SDS011;72529;51.786;4.662;2024-01-07T08:34:24;27.53;;;27.11;;
82787;SDS011;72529;51.786;4.662;2024-01-07T08:36:50;27.19;;;26.93;;
82787;SDS011;72529;51.786;4.662;2024-01-07T08:39:15;26.61;;;26.23;;
82787;SDS011;72529;51.786;4.662;2024-01-07T08:41:41;27.37;;;26.82;;
82787;SDS011;72529;51.786;4.662;2024-01-07T08:44:07;26.75;;;26.46;;
82787;SDS011;72529;51.786;4.662;2024-01-07T08:46:33;25.84;;;25.54;;
82787;SDS011;72529;51.786;4.662;2024-01-07T08:48:59;25.64;;;25.19;;
82787;SDS011;72529;51.786;4.662;2024-01-07T08:51:25;25.25;;;24.94;;
82787;SDS011;72529;51.786;4.662;2024-01-07T08:53:50;25.03;;;24.93;;
82787;SDS011;72529;51.786;4.662;2024-01-07T08:56:16;25.68;;;25.34;;
82787;SDS011;72529;51.786;4.662;2024-01-07T08:58:41;24.82;;;24.56;;
82787;SDS011;72529;51.786;4.662;2024-01-07T09:01:07;24.91;;;24.57;;
82787;SDS011;72529;51.786;4.662;2024-01-07T09:03:33;23.91;;;23.57;;
82787;SDS011;72529;51.786;4.662;2024-01-07T09:05:58;23.37;;;23.25;;
82787;SDS011;72529;51.786;4.662;2024-01-07T09:08:24;24.62;;;24.20;;
82787;SDS011;72529;51.786;4.662;2024-01-07T09:10:49;24.53;;;24.25;;
82787;SDS011;72529;51.786;4.662;2024-01-07T09:13:15;24.23;;;24.06;;
82787;SDS011;72529;51.786;4.662;2024-01-07T09:15:41;23.79;;;23.74;;
82787;SDS011;72529;51.786;4.662;2024-01-07T09:18:06;24.59;;;24.43;;
82787;SDS011;72529;51.786;4.662;2024-01-07T09:20:32;23.25;;;23.09;;
82787;SDS011;72529;51.786;4.662;2024-01-07T09:22:58;23.63;;;23.47;;
82787;SDS011;72529;51.786;4.662;2024-01-07T09:25:24;24.48;;;24.20;;
82787;SDS011;72529;51.786;4.662;2024-01-07T09:27:51;23.88;;;23.52;;
82787;SDS011;72529;51.786;4.662;2024-01-07T09:30:17;23.15;;;22.81;;
82787;SDS011;72529;51.786;4.662;2024-01-07T09:32:43;23.70;;;23.26;;
82787;SDS011;72529;51.786;4.662;2024-01-07T09:35:08;23.94;;;23.49;;
82787;SDS011;72529;51.786;4.662;2024-01-07T09:37:34;23.66;;;23.37;;
82787;SDS011;72529;51.786;4.662;2024-01-07T09:40:00;23.19;;;23.09;;
82787;SDS011;72529;51.786;4.662;2024-01-07T09:42:26;23.47;;;23.19;;
82787;SDS011;72529;51.786;4.662;2024-01-07T09:44:52;23.14;;;22.83;;
82787;SDS011;72529;51.786;4.662;2024-01-07T09:47:17;23.94;;;23.74;;
82787;SDS011;72529;51.786;4.662;2024-01-07T09:49:43;24.15;;;23.98;;
82787;SDS011;72529;51.786;4.662;2024-01-07T09:52:09;23.27;;;23.09;;
82787;SDS011;72529;51.786;4.662;2024-01-07T09:54:36;24.09;;;23.88;;
82787;SDS011;72529;51.786;4.662;2024-01-07T09:57:03;24.02;;;23.86;;
82787;SDS011;72529;51.786;4.662;2024-01-07T09:59:36;24.78;;;24.70;;
82787;SDS011;72529;51.786;4.662;2024-01-07T10:02:02;24.94;;;24.65;;
82787;SDS011;72529;51.786;4.662;2024-01-07T10:04:28;24.20;;;24.03;;
82787;SDS011;72529;51.786;4.662;2024-01-07T10:06:54;23.91;;;23.77;;
82787;SDS011;72529;51.786;4.662;2024-01-07T10:09:29;24.43;;;24.32;;
82787;SDS011;72529;51.786;4.662;2024-01-07T10:11:57;25.14;;;25.00;;
82787;SDS011;72529;51.786;4.662;2024-01-07T10:14:23;24.76;;;24.62;;
82787;SDS011;72529;51.786;4.662;2024-01-07T10:16:51;24.13;;;24.07;;
82787;SDS011;72529;51.786;4.662;2024-01-07T10:19:21;23.52;;;23.49;;
82787;SDS011;72529;51.786;4.662;2024-01-07T10:21:58;24.41;;;24.24;;
82787;SDS011;72529;51.786;4.662;2024-01-07T10:24:25;24.30;;;24.25;;
82787;SDS011;72529;51.786;4.662;2024-01-07T10:26:51;23.96;;;23.89;;
82787;SDS011;72529;51.786;4.662;2024-01-07T10:29:17;23.72;;;23.66;;
82787;SDS011;72529;51.786;4.662;2024-01-07T10:31:43;23.42;;;23.38;;
82787;SDS011;72529;51.786;4.662;2024-01-07T10:34:09;23.20;;;23.13;;
82787;SDS011;72529;51.786;4.662;2024-01-07T10:36:35;24.14;;;23.87;;
82787;SDS011;72529;51.786;4.662;2024-01-07T10:39:02;23.99;;;23.88;;
82787;SDS011;72529;51.786;4.662;2024-01-07T10:41:28;23.96;;;23.95;;
82787;SDS011;72529;51.786;4.662;2024-01-07T10:43:55;23.90;;;23.79;;
82787;SDS011;72529;51.786;4.662;2024-01-07T10:46:20;23.64;;;23.64;;
82787;SDS011;72529;51.786;4.662;2024-01-07T10:51:14;23.46;;;23.41;;
82787;SDS011;72529;51.786;4.662;2024-01-07T10:53:42;22.48;;;22.47;;
82787;SDS011;72529;51.786;4.662;2024-01-07T10:56:11;22.02;;;22.02;;
82787;SDS011;72529;51.786;4.662;2024-01-07T10:58:38;22.04;;;22.02;;
82787;SDS011;72529;51.786;4.662;2024-01-07T11:01:05;22.42;;;22.42;;
82787;SDS011;72529;51.786;4.662;2024-01-07T11:03:40;22.03;;;22.03;;
82787;SDS011;72529;51.786;4.662;2024-01-07T11:11:51;21.82;;;21.80;;
82787;SDS011;72529;51.786;4.662;2024-01-07T11:17:08;21.07;;;21.07;;
82787;SDS011;72529;51.786;4.662;2024-01-07T11:19:37;21.16;;;21.16;;
82787;SDS011;72529;51.786;4.662;2024-01-07T11:22:21;21.13;;;21.13;;
82787;SDS011;72529;51.786;4.662;2024-01-07T11:24:56;21.44;;;21.44;;
82787;SDS011;72529;51.786;4.662;2024-01-07T11:27:23;21.45;;;21.42;;
82787;SDS011;72529;51.786;4.662;2024-01-07T11:29:53;21.65;;;21.64;;
82787;SDS011;72529;51.786;4.662;2024-01-07T11:32:22;22.34;;;22.33;;
82787;SDS011;72529;51.786;4.662;2024-01-07T11:34:52;22.31;;;22.30;;
82787;SDS011;72529;51.786;4.662;2024-01-07T11:37:19;22.11;;;22.08;;
82787;SDS011;72529;51.786;4.662;2024-01-07T11:39:46;22.42;;;22.36;;
82787;SDS011;72529;51.786;4.662;2024-01-07T11:42:13;25.00;;;24.98;;
82787;SDS011;72529;51.786;4.662;2024-01-07T11:44:48;21.96;;;21.95;;
82787;SDS011;72529;51.786;4.662;2024-01-07T11:47:19;21.46;;;21.45;;
82787;SDS011;72529;51.786;4.662;2024-01-07T11:49:46;20.55;;;20.55;;
82787;SDS011;72529;51.786;4.662;2024-01-07T11:52:12;21.25;;;21.25;;
82787;SDS011;72529;51.786;4.662;2024-01-07T11:54:38;20.41;;;20.41;;
82787;SDS011;72529;51.786;4.662;2024-01-07T11:57:07;20.11;;;20.11;;
82787;SDS011;72529;51.786;4.662;2024-01-07T11:59:33;21.92;;;21.92;;
82787;SDS011;72529;51.786;4.662;2024-01-07T12:01:59;41.75;;;41.42;;
82787;SDS011;72529;51.786;4.662;2024-01-07T12:04:25;38.09;;;37.76;;
82787;SDS011;72529;51.786;4.662;2024-01-07T12:06:51;32.99;;;32.88;;
82787;SDS011;72529;51.786;4.662;2024-01-07T12:09:16;25.92;;;25.78;;
82787;SDS011;72529;51.786;4.662;2024-01-07T12:11:42;47.92;;;47.52;;
82787;SDS011;72529;51.786;4.662;2024-01-07T12:14:09;17.73;;;17.73;;
82787;SDS011;72529;51.786;4.662;2024-01-07T12:16:36;15.33;;;15.33;;
82787;SDS011;72529;51.786;4.662;2024-01-07T12:19:02;14.17;;;14.17;;
82787;SDS011;72529;51.786;4.662;2024-01-07T12:21:28;13.57;;;13.57;;
82787;SDS011;72529;51.786;4.662;2024-01-07T12:23:55;13.41;;;13.41;;
82787;SDS011;72529;51.786;4.662;2024-01-07T12:26:25;13.19;;;13.19;;
82787;SDS011;72529;51.786;4.662;2024-01-07T12:28:52;13.49;;;13.49;;
82787;SDS011;72529;51.786;4.662;2024-01-07T12:31:20;14.53;;;14.53;;
82787;SDS011;72529;51.786;4.662;2024-01-07T12:33:46;12.38;;;12.38;;
82787;SDS011;72529;51.786;4.662;2024-01-07T12:36:12;12.95;;;12.95;;
82787;SDS011;72529;51.786;4.662;2024-01-07T12:38:38;12.11;;;12.11;;
82787;SDS011;72529;51.786;4.662;2024-01-07T12:41:03;12.22;;;12.22;;
82787;SDS011;72529;51.786;4.662;2024-01-07T12:43:30;11.70;;;11.70;;
82787;SDS011;72529;51.786;4.662;2024-01-07T12:45:55;11.62;;;11.62;;
82787;SDS011;72529;51.786;4.662;2024-01-07T12:48:22;10.91;;;10.91;;
82787;SDS011;72529;51.786;4.662;2024-01-07T12:50:47;11.61;;;11.61;;
82787;SDS011;72529;51.786;4.662;2024-01-07T12:53:13;11.36;;;11.36;;
82787;SDS011;72529;51.786;4.662;2024-01-07T12:55:39;12.99;;;12.98;;
82787;SDS011;72529;51.786;4.662;2024-01-07T12:58:05;12.69;;;12.69;;
82787;SDS011;72529;51.786;4.662;2024-01-07T13:00:30;11.77;;;11.77;;
82787;SDS011;72529;51.786;4.662;2024-01-07T13:02:56;11.00;;;11.00;;
82787;SDS011;72529;51.786;4.662;2024-01-07T13:05:21;10.95;;;10.93;;
82787;SDS011;72529;51.786;4.662;2024-01-07T13:07:47;10.10;;;10.10;;
82787;SDS011;72529;51.786;4.662;2024-01-07T13:10:13;10.23;;;10.23;;
82787;SDS011;72529;51.786;4.662;2024-01-07T13:12:38;10.21;;;10.19;;
82787;SDS011;72529;51.786;4.662;2024-01-07T13:15:04;8.94;;;8.93;;
82787;SDS011;72529;51.786;4.662;2024-01-07T13:17:30;8.38;;;8.38;;
82787;SDS011;72529;51.786;4.662;2024-01-07T13:19:57;8.58;;;8.58;;
82787;SDS011;72529;51.786;4.662;2024-01-07T13:22:23;7.80;;;7.80;;
82787;SDS011;72529;51.786;4.662;2024-01-07T13:24:49;7.31;;;7.31;;
82787;SDS011;72529;51.786;4.662;2024-01-07T13:27:15;7.26;;;7.26;;
82787;SDS011;72529;51.786;4.662;2024-01-07T13:29:43;7.30;;;7.30;;
82787;SDS011;72529;51.786;4.662;2024-01-07T13:32:10;6.84;;;6.84;;
82787;SDS011;72529;51.786;4.662;2024-01-07T13:34:36;7.06;;;7.06;;
82787;SDS011;72529;51.786;4.662;2024-01-07T13:37:01;7.06;;;7.06;;
82787;SDS011;72529;51.786;4.662;2024-01-07T13:39:28;6.93;;;6.93;;
82787;SDS011;72529;51.786;4.662;2024-01-07T13:41:55;6.98;;;6.98;;
82787;SDS011;72529;51.786;4.662;2024-01-07T13:44:20;6.80;;;6.80;;
82787;SDS011;72529;51.786;4.662;2024-01-07T13:46:45;6.53;;;6.53;;
82787;SDS011;72529;51.786;4.662;2024-01-07T13:49:17;6.63;;;6.63;;
82787;SDS011;72529;51.786;4.662;2024-01-07T13:51:43;6.68;;;6.68;;
82787;SDS011;72529;51.786;4.662;2024-01-07T13:54:09;6.41;;;6.41;;
82787;SDS011;72529;51.786;4.662;2024-01-07T13:56:38;6.72;;;6.72;;
82787;SDS011;72529;51.786;4.662;2024-01-07T13:59:07;6.36;;;6.36;;
82787;SDS011;72529;51.786;4.662;2024-01-07T14:01:33;6.63;;;6.63;;
82787;SDS011;72529;51.786;4.662;2024-01-07T14:03:59;6.40;;;6.40;;
82787;SDS011;72529;51.786;4.662;2024-01-07T14:06:25;6.07;;;6.07;;
82787;SDS011;72529;51.786;4.662;2024-01-07T14:08:50;6.22;;;6.22;;
82787;SDS011;72529;51.786;4.662;2024-01-07T14:11:17;6.25;;;6.25;;
82787;SDS011;72529;51.786;4.662;2024-01-07T14:13:43;5.50;;;5.50;;
82787;SDS011;72529;51.786;4.662;2024-01-07T14:16:10;5.45;;;5.45;;
82787;SDS011;72529;51.786;4.662;2024-01-07T14:18:36;5.15;;;5.15;;
82787;SDS011;72529;51.786;4.662;2024-01-07T14:21:02;5.12;;;5.12;;
82787;SDS011;72529;51.786;4.662;2024-01-07T14:23:27;5.41;;;5.41;;
82787;SDS011;72529;51.786;4.662;2024-01-07T14:25:55;5.50;;;5.50;;
82787;SDS011;72529;51.786;4.662;2024-01-07T14:28:21;5.89;;;5.89;;